Time,TemperatureF,DewpointF,PressureIn,WindDirection,WindDirectionDegrees,WindSpeedMPH,WindSpeedGustMPH,Humidity,HourlyPrecipIn,Conditions,Clouds,dailyrainin,SoftwareType,DateUTC
2013-09-25 00:02:00,56.8,55.8,29.91,ESE,104,0.0,0.0,96,0.00,,,0.00,meteobridge,2013-09-25 04:02:00,
2013-09-25 00:07:00,57.0,56.1,29.91,ESE,104,0.0,0.0,97,0.00,,,0.00,meteobridge,2013-09-25 04:07:00,
2013-09-25 00:13:00,57.0,56.1,29.91,ESE,104,0.0,0.0,97,0.00,,,0.00,meteobridge,2013-09-25 04:13:00,
2013-09-25 00:18:00,57.0,55.9,29.91,ESE,104,0.0,0.0,96,0.00,,,0.00,meteobridge,2013-09-25 04:18:00,
2013-09-25 00:23:00,56.8,55.8,29.91,ESE,104,0.0,0.0,96,0.00,,,0.00,meteobridge,2013-09-25 04:23:00,
2013-09-25 00:28:00,56.7,55.6,29.91,ESE,104,0.0,0.0,96,0.00,,,0.00,meteobridge,2013-09-25 04:28:00,
2013-09-25 00:33:00,56.7,55.6,29.91,ESE,104,0.0,0.0,96,0.00,,,0.00,meteobridge,2013-09-25 04:33:00,
2013-09-25 00:38:00,56.5,55.4,29.91,ESE,104,0.0,0.0,96,0.00,,,0.00,meteobridge,2013-09-25 04:38:00,
2013-09-25 00:44:00,56.3,55.2,29.91,ESE,104,0.0,0.0,96,0.00,,,0.00,meteobridge,2013-09-25 04:44:00,
2013-09-25 00:49:00,56.1,55.0,29.91,ESE,104,0.0,0.0,96,0.00,,,0.00,meteobridge,2013-09-25 04:49:00,
2013-09-25 00:54:00,56.1,55.2,29.91,ESE,104,0.0,0.0,97,0.00,,,0.00,meteobridge,2013-09-25 04:54:00,
2013-09-25 00:59:00,55.9,55.0,29.91,ESE,104,0.0,0.0,97,0.00,,,0.00,meteobridge,2013-09-25 04:59:00,
2013-09-25 01:04:00,55.9,55.0,29.91,ESE,104,0.0,0.0,97,0.00,,,0.00,meteobridge,2013-09-25 05:04:00,
2013-09-25 01:09:00,55.9,55.0,29.91,ESE,104,0.0,0.0,97,0.00,,,0.00,meteobridge,2013-09-25 05:09:00,
2013-09-25 01:15:00,55.9,55.0,29.91,ESE,104,0.0,0.0,97,0.00,,,0.00,meteobridge,2013-09-25 05:15:00,
2013-09-25 01:20:00,55.9,55.0,29.91,ESE,104,0.0,0.0,97,0.00,,,0.00,meteobridge,2013-09-25 05:20:00,
2013-09-25 01:25:00,55.9,55.0,29.91,ESE,104,0.0,0.0,97,0.00,,,0.00,meteobridge,2013-09-25 05:25:00,
2013-09-25 01:30:00,55.8,54.9,29.90,ESE,104,0.0,0.0,97,0.00,,,0.00,meteobridge,2013-09-25 05:30:00,
2013-09-25 01:35:00,55.8,54.9,29.90,ESE,104,0.0,0.0,97,0.00,,,0.00,meteobridge,2013-09-25 05:35:00,
2013-09-25 01:41:00,55.6,54.7,29.90,ESE,104,0.0,0.0,97,0.00,,,0.00,meteobridge,2013-09-25 05:41:00,
2013-09-25 01:46:00,55.6,54.7,29.90,ESE,104,0.0,0.0,97,0.00,,,0.00,meteobridge,2013-09-25 05:46:00,
2013-09-25 01:51:00,55.4,54.5,29.90,ESE,104,0.0,0.0,97,0.00,,,0.00,meteobridge,2013-09-25 05:51:00,
2013-09-25 01:56:00,55.4,54.5,29.90,ESE,104,0.0,0.0,97,0.00,,,0.00,meteobridge,2013-09-25 05:56:00,
2013-09-25 02:01:00,55.2,54.3,29.89,ESE,104,0.0,0.0,97,0.00,,,0.00,meteobridge,2013-09-25 06:01:00,
2013-09-25 02:06:00,55.2,54.3,29.89,ESE,104,0.0,0.0,97,0.00,,,0.00,meteobridge,2013-09-25 06:06:00,
2013-09-25 02:12:00,55.2,54.3,29.89,ESE,104,0.0,0.0,97,0.00,,,0.00,meteobridge,2013-09-25 06:12:00,
2013-09-25 02:17:00,55.0,54.1,29.89,ESE,104,0.0,0.0,97,0.00,,,0.00,meteobridge,2013-09-25 06:17:00,
2013-09-25 02:22:00,55.0,54.1,29.89,ESE,104,0.0,0.0,97,0.00,,,0.00,meteobridge,2013-09-25 06:22:00,
2013-09-25 02:27:00,54.9,54.0,29.89,ESE,104,0.0,0.0,97,0.00,,,0.00,meteobridge,2013-09-25 06:27:00,
2013-09-25 02:32:00,54.9,54.0,29.89,ESE,104,0.0,0.0,97,0.00,,,0.00,meteobridge,2013-09-25 06:32:00,
2013-09-25 02:37:00,54.7,53.8,29.89,ESE,104,0.0,0.0,97,0.00,,,0.00,meteobridge,2013-09-25 06:37:00,
2013-09-25 02:42:00,54.7,53.8,29.89,ESE,104,0.0,0.0,97,0.00,,,0.00,meteobridge,2013-09-25 06:42:00,
2013-09-25 02:47:00,54.5,53.6,29.89,ESE,104,0.0,0.0,97,0.00,,,0.00,meteobridge,2013-09-25 06:47:00,
2013-09-25 02:53:00,54.5,54.0,29.89,ESE,104,0.0,0.0,98,0.00,,,0.00,meteobridge,2013-09-25 06:53:00,
2013-09-25 02:58:00,54.5,54.0,29.89,ESE,104,0.0,0.0,98,0.00,,,0.00,meteobridge,2013-09-25 06:58:00,
2013-09-25 03:03:00,54.5,54.0,29.88,ESE,104,0.0,0.0,98,0.00,,,0.00,meteobridge,2013-09-25 07:03:00,
2013-09-25 03:08:00,54.5,54.0,29.88,ESE,104,0.0,0.0,98,0.00,,,0.00,meteobridge,2013-09-25 07:08:00,
2013-09-25 03:13:00,54.5,54.0,29.88,ESE,104,0.0,0.0,98,0.00,,,0.00,meteobridge,2013-09-25 07:13:00,
2013-09-25 03:18:00,54.3,53.8,29.87,ESE,104,0.0,0.0,98,0.00,,,0.00,meteobridge,2013-09-25 07:18:00,
2013-09-25 03:24:00,54.1,53.6,29.87,ESE,104,0.0,0.0,98,0.00,,,0.00,meteobridge,2013-09-25 07:24:00,
2013-09-25 03:29:00,54.1,53.6,29.87,ESE,104,0.0,0.0,98,0.00,,,0.00,meteobridge,2013-09-25 07:29:00,
2013-09-25 03:34:00,54.1,53.6,29.87,ESE,104,0.0,0.0,98,0.00,,,0.00,meteobridge,2013-09-25 07:34:00,
2013-09-25 03:39:00,54.1,53.6,29.87,ESE,104,0.0,0.0,98,0.00,,,0.00,meteobridge,2013-09-25 07:39:00,
2013-09-25 03:44:00,54.1,53.6,29.86,ESE,104,0.0,0.0,98,0.00,,,0.00,meteobridge,2013-09-25 07:44:00,
2013-09-25 03:50:00,54.1,53.6,29.86,ESE,104,0.0,0.0,98,0.00,,,0.00,meteobridge,2013-09-25 07:50:00,
2013-09-25 03:55:00,54.1,53.6,29.86,ESE,104,0.0,0.0,98,0.00,,,0.00,meteobridge,2013-09-25 07:55:00,
2013-09-25 04:00:00,54.0,53.4,29.86,ESE,104,0.0,0.0,98,0.00,,,0.00,meteobridge,2013-09-25 08:00:00,
2013-09-25 04:05:00,54.0,53.4,29.86,ESE,104,0.0,0.0,98,0.00,,,0.00,meteobridge,2013-09-25 08:05:00,
2013-09-25 04:11:00,53.8,53.2,29.86,ESE,104,0.0,0.0,98,0.00,,,0.00,meteobridge,2013-09-25 08:11:00,
2013-09-25 04:16:00,53.8,53.2,29.85,ESE,104,0.0,0.0,98,0.00,,,0.00,meteobridge,2013-09-25 08:16:00,
2013-09-25 04:21:00,53.6,53.1,29.85,ESE,104,0.0,0.0,98,0.00,,,0.00,meteobridge,2013-09-25 08:21:00,
2013-09-25 04:26:00,53.6,53.1,29.85,ESE,104,0.0,0.0,98,0.00,,,0.00,meteobridge,2013-09-25 08:26:00,
2013-09-25 04:31:00,53.4,52.9,29.85,ESE,104,0.0,0.0,98,0.00,,,0.00,meteobridge,2013-09-25 08:31:00,
2013-09-25 04:36:00,53.4,52.9,29.85,ESE,104,0.0,0.0,98,0.00,,,0.00,meteobridge,2013-09-25 08:36:00,
2013-09-25 04:41:00,53.2,52.7,29.85,ESE,104,0.0,0.0,98,0.00,,,0.00,meteobridge,2013-09-25 08:41:00,
2013-09-25 04:47:00,53.1,52.5,29.85,ESE,104,0.0,0.0,98,0.00,,,0.00,meteobridge,2013-09-25 08:47:00,
2013-09-25 04:52:00,52.9,52.3,29.85,ESE,104,0.0,0.0,98,0.00,,,0.00,meteobridge,2013-09-25 08:52:00,
2013-09-25 04:57:00,52.9,52.3,29.85,ESE,104,0.0,0.0,98,0.00,,,0.00,meteobridge,2013-09-25 08:57:00,
2013-09-25 05:02:00,52.9,52.3,29.86,ESE,104,0.0,0.0,98,0.00,,,0.00,meteobridge,2013-09-25 09:02:00,
2013-09-25 05:07:00,52.5,52.0,29.86,ESE,104,0.0,0.0,98,0.00,,,0.00,meteobridge,2013-09-25 09:07:00,
2013-09-25 05:13:00,52.5,52.0,29.86,ESE,104,0.0,0.0,98,0.00,,,0.00,meteobridge,2013-09-25 09:13:00,
2013-09-25 05:18:00,52.5,52.0,29.85,ESE,104,0.0,0.0,98,0.00,,,0.00,meteobridge,2013-09-25 09:18:00,
2013-09-25 05:23:00,52.5,52.0,29.85,ESE,104,0.0,0.0,98,0.00,,,0.00,meteobridge,2013-09-25 09:23:00,
2013-09-25 05:28:00,52.3,51.8,29.85,ESE,104,0.0,0.0,98,0.00,,,0.00,meteobridge,2013-09-25 09:28:00,
2013-09-25 05:33:00,52.3,52.0,29.85,ESE,104,0.0,0.0,99,0.00,,,0.00,meteobridge,2013-09-25 09:33:00,
2013-09-25 05:38:00,52.2,51.6,29.85,ESE,104,0.0,0.0,98,0.00,,,0.00,meteobridge,2013-09-25 09:38:00,
2013-09-25 05:44:00,52.0,51.4,29.85,ESE,104,0.0,0.0,98,0.00,,,0.00,meteobridge,2013-09-25 09:44:00,
2013-09-25 05:49:00,52.0,51.4,29.86,ESE,104,0.0,0.0,98,0.00,,,0.00,meteobridge,2013-09-25 09:49:00,
2013-09-25 05:54:00,52.0,51.4,29.86,ESE,104,0.0,0.0,98,0.00,,,0.00,meteobridge,2013-09-25 09:54:00,
2013-09-25 05:59:00,51.6,51.3,29.86,ESE,104,0.0,0.0,99,0.00,,,0.00,meteobridge,2013-09-25 09:59:00,
2013-09-25 06:04:00,51.6,51.3,29.87,ESE,104,0.0,0.0,99,0.00,,,0.00,meteobridge,2013-09-25 10:04:00,
2013-09-25 06:09:00,51.6,51.3,29.87,ESE,104,0.0,0.0,99,0.00,,,0.00,meteobridge,2013-09-25 10:09:00,
2013-09-25 06:15:00,51.6,51.3,29.88,ESE,104,0.0,0.0,99,0.00,,,0.00,meteobridge,2013-09-25 10:15:00,
2013-09-25 06:20:00,51.6,51.3,29.88,ESE,104,0.0,0.0,99,0.00,,,0.00,meteobridge,2013-09-25 10:20:00,
2013-09-25 06:25:00,51.6,51.3,29.88,ESE,104,0.0,0.0,99,0.00,,,0.00,meteobridge,2013-09-25 10:25:00,
2013-09-25 06:30:00,51.6,51.3,29.88,ESE,104,0.0,0.0,99,0.00,,,0.00,meteobridge,2013-09-25 10:30:00,
2013-09-25 06:35:00,52.0,51.6,29.88,ESE,104,0.0,0.0,99,0.00,,,0.00,meteobridge,2013-09-25 10:35:00,
2013-09-25 06:40:00,52.0,51.6,29.88,ESE,104,0.0,0.0,99,0.00,,,0.00,meteobridge,2013-09-25 10:40:00,
2013-09-25 06:45:00,52.2,51.8,29.88,ESE,104,0.0,0.0,99,0.00,,,0.00,meteobridge,2013-09-25 10:45:00,
2013-09-25 06:51:00,52.0,51.6,29.88,ESE,104,0.0,0.0,99,0.00,,,0.00,meteobridge,2013-09-25 10:51:00,
2013-09-25 06:56:00,52.0,51.6,29.88,ESE,104,0.0,0.0,99,0.00,,,0.00,meteobridge,2013-09-25 10:56:00,
2013-09-25 07:01:00,52.0,51.6,29.87,ESE,104,0.0,0.0,99,0.00,,,0.00,meteobridge,2013-09-25 11:01:00,
2013-09-25 07:06:00,52.0,51.6,29.87,ESE,104,0.0,0.0,99,0.00,,,0.00,meteobridge,2013-09-25 11:06:00,
2013-09-25 07:11:00,52.0,51.6,29.87,ESE,104,0.0,0.0,99,0.00,,,0.00,meteobridge,2013-09-25 11:11:00,
2013-09-25 07:17:00,52.0,51.6,29.88,ESE,104,0.0,0.0,99,0.00,,,0.00,meteobridge,2013-09-25 11:17:00,
2013-09-25 07:22:00,52.0,51.6,29.88,ESE,104,0.0,0.0,99,0.00,,,0.00,meteobridge,2013-09-25 11:22:00,
2013-09-25 07:27:00,52.2,51.8,29.88,ESE,104,0.0,0.0,99,0.00,,,0.00,meteobridge,2013-09-25 11:27:00,
2013-09-25 07:32:00,52.3,52.0,29.88,ESE,104,0.0,0.0,99,0.00,,,0.00,meteobridge,2013-09-25 11:32:00,
2013-09-25 07:37:00,52.5,52.2,29.88,ESE,104,0.0,0.0,99,0.00,,,0.00,meteobridge,2013-09-25 11:37:00,
2013-09-25 07:43:00,52.5,52.2,29.88,ESE,104,0.0,0.0,99,0.00,,,0.00,meteobridge,2013-09-25 11:43:00,
2013-09-25 07:48:00,52.5,52.2,29.89,ESE,104,0.0,0.0,99,0.00,,,0.00,meteobridge,2013-09-25 11:48:00,
2013-09-25 07:53:00,52.5,52.2,29.89,ESE,104,0.0,0.0,99,0.00,,,0.00,meteobridge,2013-09-25 11:53:00,
2013-09-25 07:58:00,52.5,52.2,29.89,ESE,104,0.0,0.0,99,0.00,,,0.00,meteobridge,2013-09-25 11:58:00,
2013-09-25 08:03:00,52.9,52.5,29.89,ESE,104,0.0,0.0,99,0.00,,,0.00,meteobridge,2013-09-25 12:03:00,
2013-09-25 08:08:00,53.1,52.7,29.89,ESE,104,0.0,0.0,99,0.00,,,0.00,meteobridge,2013-09-25 12:08:00,
2013-09-25 08:14:00,53.2,52.9,29.89,ESE,104,0.0,0.0,99,0.00,,,0.00,meteobridge,2013-09-25 12:14:00,
2013-09-25 08:19:00,53.8,53.4,29.88,ESE,104,0.0,0.0,99,0.00,,,0.00,meteobridge,2013-09-25 12:19:00,
2013-09-25 08:24:00,54.0,53.6,29.88,ESE,104,0.0,0.0,99,0.00,,,0.00,meteobridge,2013-09-25 12:24:00,
2013-09-25 08:29:00,54.1,53.8,29.88,ESE,104,0.0,0.0,99,0.00,,,0.00,meteobridge,2013-09-25 12:29:00,
2013-09-25 08:34:00,54.3,54.0,29.88,ESE,104,0.0,0.0,99,0.00,,,0.00,meteobridge,2013-09-25 12:34:00,
2013-09-25 08:39:00,54.5,54.1,29.88,ESE,104,0.0,0.0,99,0.00,,,0.00,meteobridge,2013-09-25 12:39:00,
2013-09-25 08:45:00,54.7,54.3,29.88,ESE,104,0.0,0.0,99,0.00,,,0.00,meteobridge,2013-09-25 12:45:00,
2013-09-25 08:50:00,54.9,54.5,29.88,ESE,104,0.0,0.0,99,0.00,,,0.00,meteobridge,2013-09-25 12:50:00,
2013-09-25 08:55:00,55.0,54.7,29.88,ESE,104,0.0,0.0,99,0.00,,,0.00,meteobridge,2013-09-25 12:55:00,
2013-09-25 09:00:00,55.2,54.9,29.88,ESE,104,0.0,0.0,99,0.00,,,0.00,meteobridge,2013-09-25 13:00:00,
2013-09-25 09:05:00,55.4,55.0,29.88,ESE,104,0.0,0.0,99,0.00,,,0.00,meteobridge,2013-09-25 13:05:00,
2013-09-25 09:10:00,55.4,55.0,29.88,ESE,104,0.0,0.0,99,0.00,,,0.00,meteobridge,2013-09-25 13:10:00,
2013-09-25 09:16:00,55.6,55.2,29.88,SE,133,0.0,0.0,99,0.00,,,0.00,meteobridge,2013-09-25 13:16:00,
2013-09-25 09:21:00,55.9,55.6,29.88,NW,312,0.0,0.0,99,0.00,,,0.00,meteobridge,2013-09-25 13:21:00,
2013-09-25 09:26:00,56.3,55.9,29.88,NW,312,0.0,0.0,99,0.00,,,0.00,meteobridge,2013-09-25 13:26:00,
2013-09-25 09:31:00,56.8,56.5,29.89,NW,312,0.0,0.0,99,0.00,,,0.00,meteobridge,2013-09-25 13:31:00,
2013-09-25 09:36:00,57.2,56.8,29.89,NW,312,0.0,0.0,99,0.00,,,0.00,meteobridge,2013-09-25 13:36:00,
2013-09-25 09:41:00,57.2,56.7,29.89,NW,312,0.0,0.0,98,0.00,,,0.00,meteobridge,2013-09-25 13:41:00,
2013-09-25 09:47:00,57.4,56.8,29.89,NW,312,0.0,0.0,98,0.00,,,0.00,meteobridge,2013-09-25 13:47:00,
2013-09-25 09:52:00,57.6,56.7,29.89,NW,312,0.0,0.0,97,0.00,,,0.00,meteobridge,2013-09-25 13:52:00,
2013-09-25 09:57:00,57.6,56.7,29.89,NW,312,0.0,0.0,97,0.00,,,0.00,meteobridge,2013-09-25 13:57:00,
2013-09-25 10:02:00,57.9,56.8,29.89,NW,312,0.0,0.0,96,0.00,,,0.00,meteobridge,2013-09-25 14:02:00,
2013-09-25 10:07:00,58.1,56.7,29.89,NW,312,0.0,0.9,95,0.00,,,0.00,meteobridge,2013-09-25 14:07:00,
2013-09-25 10:12:00,58.5,57.0,29.89,NW,312,0.0,0.0,95,0.00,,,0.00,meteobridge,2013-09-25 14:12:00,
2013-09-25 10:18:00,58.5,56.5,29.89,NW,312,0.0,2.0,93,0.00,,,0.00,meteobridge,2013-09-25 14:18:00,
2013-09-25 10:23:00,59.0,56.7,29.89,NW,312,0.0,0.0,92,0.00,,,0.00,meteobridge,2013-09-25 14:23:00,
2013-09-25 10:28:00,59.5,56.8,29.89,NW,312,0.9,2.0,91,0.00,,,0.00,meteobridge,2013-09-25 14:28:00,
2013-09-25 10:33:00,60.1,56.5,29.89,NW,313,0.0,0.9,88,0.00,,,0.00,meteobridge,2013-09-25 14:33:00,
2013-09-25 10:38:00,60.4,56.3,29.89,North,350,0.0,0.0,86,0.00,,,0.00,meteobridge,2013-09-25 14:38:00,
2013-09-25 10:43:00,61.0,56.5,29.89,North,350,0.0,0.0,85,0.00,,,0.00,meteobridge,2013-09-25 14:43:00,
2013-09-25 10:48:00,61.3,56.1,29.89,North,350,0.0,0.9,83,0.00,,,0.00,meteobridge,2013-09-25 14:48:00,
2013-09-25 10:53:00,61.5,56.3,29.89,North,350,0.0,0.0,83,0.00,,,0.00,meteobridge,2013-09-25 14:53:00,
2013-09-25 10:59:00,61.9,56.3,29.89,North,350,0.0,0.9,82,0.00,,,0.00,meteobridge,2013-09-25 14:59:00,
2013-09-25 11:04:00,62.1,55.8,29.89,North,350,0.0,0.0,80,0.00,,,0.00,meteobridge,2013-09-25 15:04:00,
2013-09-25 11:09:00,62.1,56.1,29.89,NNW,329,0.9,4.0,81,0.00,,,0.00,meteobridge,2013-09-25 15:09:00,
2013-09-25 11:14:00,62.4,56.8,29.90,NNW,329,0.0,0.0,82,0.00,,,0.00,meteobridge,2013-09-25 15:14:00,
2013-09-25 11:19:00,62.8,56.5,29.90,NNW,329,0.9,2.9,80,0.00,,,0.00,meteobridge,2013-09-25 15:19:00,
2013-09-25 11:24:00,63.1,56.8,29.90,NW,305,0.0,2.9,80,0.00,,,0.00,meteobridge,2013-09-25 15:24:00,
2013-09-25 11:34:00,63.3,56.7,29.90,North,1,2.0,2.9,79,0.00,,,0.00,meteobridge,2013-09-25 15:34:00,
2013-09-25 11:39:00,63.5,56.8,29.90,North,6,0.0,2.0,79,0.00,,,0.00,meteobridge,2013-09-25 15:39:00,
2013-09-25 11:45:00,63.9,57.2,29.90,North,6,0.0,0.0,79,0.00,,,0.00,meteobridge,2013-09-25 15:45:00,
2013-09-25 11:50:00,64.2,57.6,29.90,North,6,0.0,0.9,79,0.00,,,0.00,meteobridge,2013-09-25 15:50:00,
2013-09-25 11:55:00,64.9,57.6,29.90,North,6,0.0,0.0,77,0.00,,,0.00,meteobridge,2013-09-25 15:55:00,
2013-09-25 12:00:00,64.9,57.2,29.89,North,8,0.0,2.9,76,0.00,,,0.00,meteobridge,2013-09-25 16:00:00,
2013-09-25 12:05:00,65.3,57.9,29.89,North,8,0.9,0.9,77,0.00,,,0.00,meteobridge,2013-09-25 16:05:00,
2013-09-25 12:10:00,65.5,57.7,29.89,North,8,0.0,0.0,76,0.00,,,0.00,meteobridge,2013-09-25 16:10:00,
2013-09-25 12:15:00,65.8,57.7,29.89,North,8,0.0,0.0,75,0.00,,,0.00,meteobridge,2013-09-25 16:15:00,
2013-09-25 12:20:00,66.4,58.3,29.89,North,8,0.9,2.0,75,0.00,,,0.00,meteobridge,2013-09-25 16:20:00,
2013-09-25 12:25:00,67.3,59.5,29.89,North,8,0.0,0.0,76,0.00,,,0.00,meteobridge,2013-09-25 16:25:00,
2013-09-25 12:30:00,68.4,59.0,29.89,NNE,24,0.9,2.0,72,0.00,,,0.00,meteobridge,2013-09-25 16:30:00,
2013-09-25 12:35:00,68.5,58.8,29.89,ESE,117,2.9,2.9,71,0.00,,,0.00,meteobridge,2013-09-25 16:35:00,
2013-09-25 12:40:00,68.9,59.2,29.89,ESE,117,0.0,0.0,71,0.00,,,0.00,meteobridge,2013-09-25 16:40:00,
2013-09-25 12:46:00,69.3,59.5,29.88,ESE,117,0.0,0.0,71,0.00,,,0.00,meteobridge,2013-09-25 16:46:00,
2013-09-25 12:51:00,69.6,59.7,29.88,ESE,117,0.0,2.0,71,0.00,,,0.00,meteobridge,2013-09-25 16:51:00,
2013-09-25 12:56:00,69.4,59.5,29.88,ESE,119,0.0,2.9,71,0.00,,,0.00,meteobridge,2013-09-25 16:56:00,
2013-09-25 13:01:00,69.4,60.1,29.88,ESE,119,0.0,0.0,72,0.00,,,0.00,meteobridge,2013-09-25 17:01:00,
2013-09-25 13:06:00,70.2,60.6,29.88,ESE,119,0.9,2.0,72,0.00,,,0.00,meteobridge,2013-09-25 17:06:00,
2013-09-25 13:11:00,70.3,59.7,29.88,ESE,110,2.9,4.0,69,0.00,,,0.00,meteobridge,2013-09-25 17:11:00,
2013-09-25 13:16:00,70.3,59.4,29.88,NE,47,0.0,0.0,68,0.00,,,0.00,meteobridge,2013-09-25 17:16:00,
2013-09-25 13:21:00,70.3,59.4,29.88,NE,47,0.0,0.0,68,0.00,,,0.00,meteobridge,2013-09-25 17:21:00,
2013-09-25 13:26:00,70.9,59.7,29.88,East,93,2.0,4.0,68,0.00,,,0.00,meteobridge,2013-09-25 17:26:00,
2013-09-25 13:32:00,70.9,59.4,29.88,East,93,0.0,0.9,67,0.00,,,0.00,meteobridge,2013-09-25 17:32:00,
2013-09-25 13:37:00,71.2,59.7,29.88,SSE,150,2.0,4.0,67,0.00,,,0.00,meteobridge,2013-09-25 17:37:00,
2013-09-25 13:42:00,71.6,60.4,29.88,ESE,110,0.9,2.0,68,0.00,,,0.00,meteobridge,2013-09-25 17:42:00,
2013-09-25 13:47:00,71.6,60.4,29.87,SSE,150,0.0,4.9,68,0.00,,,0.00,meteobridge,2013-09-25 17:47:00,
2013-09-25 13:52:00,71.6,59.7,29.87,SE,144,0.0,0.0,66,0.00,,,0.00,meteobridge,2013-09-25 17:52:00,
2013-09-25 13:57:00,71.4,59.5,29.87,SE,144,0.0,0.9,66,0.00,,,0.00,meteobridge,2013-09-25 17:57:00,
2013-09-25 14:02:00,71.2,59.4,29.87,SE,144,0.0,0.0,66,0.00,,,0.00,meteobridge,2013-09-25 18:02:00,
2013-09-25 14:07:00,71.6,60.1,29.87,SE,144,0.0,0.9,67,0.00,,,0.00,meteobridge,2013-09-25 18:07:00,
2013-09-25 14:12:00,71.2,59.4,29.87,SE,144,0.0,2.9,66,0.00,,,0.00,meteobridge,2013-09-25 18:12:00,
2013-09-25 14:17:00,70.9,59.4,29.85,SE,131,0.9,0.9,67,0.00,,,0.00,meteobridge,2013-09-25 18:17:00,
2013-09-25 14:23:00,71.2,60.1,29.85,SE,131,0.0,0.0,68,0.00,,,0.00,meteobridge,2013-09-25 18:23:00,
2013-09-25 14:28:00,71.4,59.9,29.85,SE,131,0.0,0.9,67,0.00,,,0.00,meteobridge,2013-09-25 18:28:00,
2013-09-25 14:33:00,71.4,59.5,29.85,East,88,0.0,2.9,66,0.00,,,0.00,meteobridge,2013-09-25 18:33:00,
2013-09-25 14:38:00,71.4,59.0,29.85,East,88,0.0,0.9,65,0.00,,,0.00,meteobridge,2013-09-25 18:38:00,
2013-09-25 14:43:00,71.4,59.5,29.85,East,90,0.0,0.9,66,0.00,,,0.00,meteobridge,2013-09-25 18:43:00,
2013-09-25 14:49:00,71.4,59.5,29.85,East,90,0.0,2.0,66,0.00,,,0.00,meteobridge,2013-09-25 18:49:00,
2013-09-25 14:54:00,71.6,58.8,29.85,East,90,0.9,0.9,64,0.00,,,0.00,meteobridge,2013-09-25 18:54:00,
2013-09-25 14:59:00,71.8,59.4,29.85,East,90,0.0,2.9,65,0.00,,,0.00,meteobridge,2013-09-25 18:59:00,
2013-09-25 15:04:00,72.0,58.6,29.85,East,90,0.0,2.0,63,0.00,,,0.00,meteobridge,2013-09-25 19:04:00,
2013-09-25 15:09:00,72.0,58.6,29.85,East,90,0.0,0.0,63,0.00,,,0.00,meteobridge,2013-09-25 19:09:00,
2013-09-25 15:14:00,72.1,57.9,29.85,SE,130,0.0,2.9,61,0.00,,,0.00,meteobridge,2013-09-25 19:14:00,
2013-09-25 15:20:00,72.1,57.9,29.85,SE,130,0.0,0.0,61,0.00,,,0.00,meteobridge,2013-09-25 19:20:00,
2013-09-25 15:25:00,72.5,58.8,29.85,SE,130,2.0,2.0,62,0.00,,,0.00,meteobridge,2013-09-25 19:25:00,
2013-09-25 15:30:00,72.3,58.6,29.84,SE,130,0.9,2.0,62,0.00,,,0.00,meteobridge,2013-09-25 19:30:00,
2013-09-25 15:35:00,72.3,59.5,29.84,SE,130,0.0,0.0,64,0.00,,,0.00,meteobridge,2013-09-25 19:35:00,
2013-09-25 15:40:00,72.3,59.0,29.84,SE,130,0.0,0.9,63,0.00,,,0.00,meteobridge,2013-09-25 19:40:00,
2013-09-25 15:45:00,72.5,59.2,29.84,SE,130,0.9,0.9,63,0.00,,,0.00,meteobridge,2013-09-25 19:45:00,
2013-09-25 15:51:00,72.3,59.0,29.84,SE,130,0.0,0.0,63,0.00,,,0.00,meteobridge,2013-09-25 19:51:00,
2013-09-25 15:56:00,72.3,59.9,29.84,SE,130,0.0,0.0,65,0.00,,,0.00,meteobridge,2013-09-25 19:56:00,
2013-09-25 16:01:00,72.1,59.4,29.84,SE,130,0.0,2.0,64,0.00,,,0.00,meteobridge,2013-09-25 20:01:00,
2013-09-25 16:06:00,72.1,59.7,29.84,SE,130,0.0,0.0,65,0.00,,,0.00,meteobridge,2013-09-25 20:06:00,
2013-09-25 16:11:00,72.3,60.3,29.84,SE,130,0.0,0.0,66,0.00,,,0.00,meteobridge,2013-09-25 20:11:00,
2013-09-25 16:16:00,72.5,60.1,29.84,SE,128,0.0,2.9,65,0.00,,,0.00,meteobridge,2013-09-25 20:16:00,
2013-09-25 16:21:00,72.7,60.6,29.84,SE,130,0.0,2.0,66,0.00,,,0.00,meteobridge,2013-09-25 20:21:00,
2013-09-25 16:26:00,73.0,60.6,29.84,ESE,106,0.9,0.9,65,0.00,,,0.00,meteobridge,2013-09-25 20:26:00,
2013-09-25 16:31:00,73.2,60.3,29.84,SSE,167,0.9,2.0,64,0.00,,,0.00,meteobridge,2013-09-25 20:31:00,
2013-09-25 16:36:00,73.0,60.1,29.84,SE,145,2.9,6.9,64,0.00,,,0.00,meteobridge,2013-09-25 20:36:00,
2013-09-25 16:41:00,72.7,60.3,29.84,SSE,147,0.9,2.0,65,0.00,,,0.00,meteobridge,2013-09-25 20:41:00,
2013-09-25 16:46:00,72.7,60.6,29.84,SSE,147,0.0,4.0,66,0.00,,,0.00,meteobridge,2013-09-25 20:46:00,
2013-09-25 16:51:00,72.3,59.9,29.84,SSE,147,0.0,2.0,65,0.00,,,0.00,meteobridge,2013-09-25 20:51:00,
2013-09-25 16:56:00,72.3,60.3,29.84,SSE,147,2.0,2.0,66,0.00,,,0.00,meteobridge,2013-09-25 20:56:00,
2013-09-25 17:01:00,72.3,59.9,29.84,SE,140,2.0,4.0,65,0.00,,,0.00,meteobridge,2013-09-25 21:01:00,
2013-09-25 17:06:00,72.0,59.9,29.84,SE,133,0.0,4.9,66,0.00,,,0.00,meteobridge,2013-09-25 21:06:00,
2013-09-25 17:11:00,71.6,60.1,29.84,SE,140,0.9,4.0,67,0.00,,,0.00,meteobridge,2013-09-25 21:11:00,
2013-09-25 17:16:00,71.4,60.3,29.84,SE,140,2.9,4.9,68,0.00,,,0.00,meteobridge,2013-09-25 21:16:00,
2013-09-25 17:22:00,71.4,60.8,29.84,SSE,148,0.0,0.0,69,0.00,,,0.00,meteobridge,2013-09-25 21:22:00,
2013-09-25 17:27:00,71.4,60.8,29.84,SSE,148,0.0,2.9,69,0.00,,,0.00,meteobridge,2013-09-25 21:27:00,
2013-09-25 17:32:00,71.1,60.8,29.84,SSE,148,0.0,2.0,70,0.00,,,0.00,meteobridge,2013-09-25 21:32:00,
2013-09-25 17:37:00,71.1,60.8,29.84,SSE,148,2.0,4.0,70,0.00,,,0.00,meteobridge,2013-09-25 21:37:00,
2013-09-25 17:42:00,71.1,61.2,29.84,SSE,160,0.0,0.9,71,0.00,,,0.00,meteobridge,2013-09-25 21:42:00,
2013-09-25 17:47:00,70.9,61.0,29.84,SSE,160,2.0,2.0,71,0.00,,,0.00,meteobridge,2013-09-25 21:47:00,
2013-09-25 17:52:00,70.9,61.3,29.84,SSE,158,0.0,4.9,72,0.00,,,0.00,meteobridge,2013-09-25 21:52:00,
2013-09-25 17:57:00,70.9,62.2,29.84,SE,136,0.0,0.9,74,0.00,,,0.00,meteobridge,2013-09-25 21:57:00,
2013-09-25 18:02:00,70.9,62.2,29.84,SE,136,0.0,2.9,74,0.00,,,0.00,meteobridge,2013-09-25 22:02:00,
2013-09-25 18:07:00,70.9,62.6,29.84,SE,136,0.0,2.0,75,0.00,,,0.00,meteobridge,2013-09-25 22:07:00,
2013-09-25 18:13:00,70.9,62.6,29.84,SE,136,0.0,0.9,75,0.00,,,0.00,meteobridge,2013-09-25 22:13:00,
2013-09-25 18:18:00,70.9,63.0,29.84,SE,136,0.9,0.9,76,0.00,,,0.00,meteobridge,2013-09-25 22:18:00,
2013-09-25 18:23:00,70.9,63.0,29.84,SE,136,0.0,0.0,76,0.00,,,0.00,meteobridge,2013-09-25 22:23:00,
2013-09-25 18:28:00,70.9,63.0,29.84,SE,136,0.0,0.9,76,0.00,,,0.00,meteobridge,2013-09-25 22:28:00,
2013-09-25 18:33:00,70.5,62.2,29.85,SE,136,0.0,2.9,75,0.00,,,0.00,meteobridge,2013-09-25 22:33:00,
2013-09-25 18:38:00,70.3,62.4,29.85,SE,136,0.0,0.0,76,0.00,,,0.00,meteobridge,2013-09-25 22:38:00,
2013-09-25 18:43:00,70.3,62.4,29.85,SE,136,0.0,0.0,76,0.00,,,0.00,meteobridge,2013-09-25 22:43:00,
2013-09-25 18:49:00,70.3,62.4,29.85,SE,136,0.0,0.0,76,0.00,,,0.00,meteobridge,2013-09-25 22:49:00,
2013-09-25 18:54:00,70.3,62.8,29.85,SE,136,0.0,0.0,77,0.00,,,0.00,meteobridge,2013-09-25 22:54:00,
2013-09-25 18:59:00,70.2,62.6,29.85,SE,136,2.9,2.9,77,0.00,,,0.00,meteobridge,2013-09-25 22:59:00,
2013-09-25 19:04:00,69.6,62.4,29.85,SE,136,0.0,0.0,78,0.00,,,0.00,meteobridge,2013-09-25 23:04:00,
2013-09-25 19:09:00,69.4,62.6,29.85,SE,136,0.0,0.0,79,0.00,,,0.00,meteobridge,2013-09-25 23:09:00,
2013-09-25 19:14:00,69.3,62.4,29.85,SE,136,0.0,0.0,79,0.00,,,0.00,meteobridge,2013-09-25 23:14:00,
2013-09-25 19:20:00,69.1,62.2,29.85,SE,136,0.0,0.0,79,0.00,,,0.00,meteobridge,2013-09-25 23:20:00,
2013-09-25 19:25:00,68.9,62.4,29.85,SE,136,0.0,0.0,80,0.00,,,0.00,meteobridge,2013-09-25 23:25:00,
2013-09-25 19:30:00,68.5,62.4,29.86,SE,136,0.0,0.0,81,0.00,,,0.00,meteobridge,2013-09-25 23:30:00,
2013-09-25 19:35:00,68.4,62.6,29.86,SE,136,0.0,0.0,82,0.00,,,0.00,meteobridge,2013-09-25 23:35:00,
2013-09-25 19:40:00,68.2,62.8,29.86,SE,136,0.0,0.0,83,0.00,,,0.00,meteobridge,2013-09-25 23:40:00,
2013-09-25 19:46:00,67.8,62.8,29.86,SE,136,0.0,0.0,84,0.00,,,0.00,meteobridge,2013-09-25 23:46:00,
2013-09-25 19:51:00,67.6,62.6,29.86,SE,136,0.0,0.0,84,0.00,,,0.00,meteobridge,2013-09-25 23:51:00,
2013-09-25 19:56:00,67.3,62.6,29.86,SE,136,0.0,0.0,85,0.00,,,0.00,meteobridge,2013-09-25 23:56:00,
2013-09-25 20:01:00,66.9,62.6,29.86,SE,136,0.0,0.0,86,0.00,,,0.00,meteobridge,2013-09-26 00:01:00,
2013-09-25 20:06:00,66.6,62.6,29.86,SE,136,0.0,0.0,87,0.00,,,0.00,meteobridge,2013-09-26 00:06:00,
2013-09-25 20:11:00,66.4,62.4,29.86,SE,136,0.0,0.0,87,0.00,,,0.00,meteobridge,2013-09-26 00:11:00,
2013-09-25 20:17:00,66.0,62.4,29.86,SE,136,0.0,0.0,88,0.00,,,0.00,meteobridge,2013-09-26 00:17:00,
2013-09-25 20:22:00,65.7,62.2,29.86,SE,136,0.0,0.0,89,0.00,,,0.00,meteobridge,2013-09-26 00:22:00,
2013-09-25 20:27:00,65.3,62.1,29.86,SE,136,0.0,0.0,89,0.00,,,0.00,meteobridge,2013-09-26 00:27:00,
2013-09-25 20:32:00,64.9,61.9,29.86,SE,136,0.0,0.0,90,0.00,,,0.00,meteobridge,2013-09-26 00:32:00,
2013-09-25 20:37:00,64.8,62.1,29.86,SE,136,0.0,0.0,91,0.00,,,0.00,meteobridge,2013-09-26 00:37:00,
2013-09-25 20:42:00,64.2,61.5,29.86,SE,136,0.0,0.0,91,0.00,,,0.00,meteobridge,2013-09-26 00:42:00,
2013-09-25 20:47:00,64.0,61.7,29.87,SE,136,0.0,0.0,92,0.00,,,0.00,meteobridge,2013-09-26 00:47:00,
2013-09-25 20:52:00,63.9,61.9,29.87,SE,136,0.0,0.0,93,0.00,,,0.00,meteobridge,2013-09-26 00:52:00,
2013-09-25 20:57:00,63.5,61.5,29.87,SE,136,0.0,0.0,93,0.00,,,0.00,meteobridge,2013-09-26 00:57:00,
2013-09-25 21:03:00,63.3,61.3,29.87,SE,136,0.0,0.0,93,0.00,,,0.00,meteobridge,2013-09-26 01:03:00,
2013-09-25 21:08:00,63.1,61.3,29.87,SE,136,0.0,0.0,94,0.00,,,0.00,meteobridge,2013-09-26 01:08:00,
2013-09-25 21:14:00,63.0,61.2,29.87,SE,136,0.0,0.0,94,0.00,,,0.00,meteobridge,2013-09-26 01:14:00,
2013-09-25 21:19:00,62.6,61.2,29.87,SE,136,0.0,0.0,95,0.00,,,0.00,meteobridge,2013-09-26 01:19:00,
2013-09-25 21:24:00,62.4,61.0,29.87,SE,136,0.0,0.0,95,0.00,,,0.00,meteobridge,2013-09-26 01:24:00,
2013-09-25 21:29:00,62.2,60.8,29.87,SE,136,0.0,0.0,95,0.00,,,0.00,meteobridge,2013-09-26 01:29:00,
2013-09-25 21:34:00,62.1,60.6,29.87,SE,136,0.0,0.0,95,0.00,,,0.00,meteobridge,2013-09-26 01:34:00,
2013-09-25 21:39:00,61.9,60.4,29.87,SE,136,0.0,0.0,95,0.00,,,0.00,meteobridge,2013-09-26 01:39:00,
2013-09-25 21:45:00,61.5,60.1,29.88,SE,136,0.0,0.0,95,0.00,,,0.00,meteobridge,2013-09-26 01:45:00,
2013-09-25 21:50:00,61.5,60.4,29.88,SE,136,0.0,0.0,96,0.00,,,0.00,meteobridge,2013-09-26 01:50:00,
2013-09-25 21:55:00,61.3,60.3,29.88,SE,136,0.0,0.0,96,0.00,,,0.00,meteobridge,2013-09-26 01:55:00,
2013-09-25 22:00:00,61.2,60.1,29.88,SE,136,0.0,0.0,96,0.00,,,0.00,meteobridge,2013-09-26 02:00:00,
2013-09-25 22:05:00,61.0,59.9,29.88,SE,136,0.0,0.0,96,0.00,,,0.00,meteobridge,2013-09-26 02:05:00,
2013-09-25 22:10:00,61.0,59.9,29.88,SE,136,0.0,0.0,96,0.00,,,0.00,meteobridge,2013-09-26 02:10:00,
2013-09-25 22:16:00,60.6,59.5,29.88,SE,136,0.0,0.0,96,0.00,,,0.00,meteobridge,2013-09-26 02:16:00,
2013-09-25 22:21:00,60.4,59.4,29.88,SE,136,0.0,0.0,96,0.00,,,0.00,meteobridge,2013-09-26 02:21:00,
2013-09-25 22:26:00,60.4,59.4,29.88,SE,136,0.0,0.0,96,0.00,,,0.00,meteobridge,2013-09-26 02:26:00,
2013-09-25 22:31:00,60.4,59.5,29.88,SE,136,0.0,0.0,97,0.00,,,0.00,meteobridge,2013-09-26 02:31:00,
2013-09-25 22:36:00,60.3,59.4,29.88,SE,136,0.0,0.0,97,0.00,,,0.00,meteobridge,2013-09-26 02:36:00,
2013-09-25 22:41:00,60.3,59.4,29.88,SE,136,0.0,0.0,97,0.00,,,0.00,meteobridge,2013-09-26 02:41:00,
2013-09-25 22:47:00,60.1,59.2,29.88,SE,136,0.0,0.0,97,0.00,,,0.00,meteobridge,2013-09-26 02:47:00,
2013-09-25 22:52:00,59.7,58.8,29.88,SE,136,0.0,0.0,97,0.00,,,0.00,meteobridge,2013-09-26 02:52:00,
2013-09-25 22:57:00,59.5,58.6,29.88,SE,136,0.0,0.0,97,0.00,,,0.00,meteobridge,2013-09-26 02:57:00,
2013-09-25 23:02:00,59.4,58.5,29.89,SE,136,0.0,0.0,97,0.00,,,0.00,meteobridge,2013-09-26 03:02:00,
2013-09-25 23:07:00,59.2,58.3,29.89,SE,136,0.0,0.0,97,0.00,,,0.00,meteobridge,2013-09-26 03:07:00,
2013-09-25 23:12:00,59.2,58.3,29.89,SE,136,0.0,0.0,97,0.00,,,0.00,meteobridge,2013-09-26 03:12:00,
2013-09-25 23:18:00,59.2,58.3,29.89,SE,136,0.0,0.0,97,0.00,,,0.00,meteobridge,2013-09-26 03:18:00,
2013-09-25 23:23:00,59.0,58.1,29.89,SE,136,0.0,0.0,97,0.00,,,0.00,meteobridge,2013-09-26 03:23:00,
2013-09-25 23:28:00,58.8,57.9,29.89,SE,136,0.0,0.0,97,0.00,,,0.00,meteobridge,2013-09-26 03:28:00,
2013-09-25 23:33:00,58.8,57.9,29.89,SE,136,0.0,0.0,97,0.00,,,0.00,meteobridge,2013-09-26 03:33:00,
2013-09-25 23:38:00,58.6,58.1,29.89,SE,136,0.0,0.0,98,0.00,,,0.00,meteobridge,2013-09-26 03:38:00,
2013-09-25 23:43:00,58.6,58.1,29.89,SE,136,0.0,0.0,98,0.00,,,0.00,meteobridge,2013-09-26 03:43:00,
2013-09-25 23:53:00,58.6,58.1,29.89,SE,136,0.0,0.0,98,0.00,,,0.00,meteobridge,2013-09-26 03:53:00,
2013-09-25 23:59:00,58.5,57.9,29.89,SE,136,0.0,0.0,98,0.00,,,0.00,meteobridge,2013-09-26 03:59:00,